createdAt,value
2024-01-25T00:00:08.837Z,6.90
2024-01-25T00:02:43.030Z,6.82
2024-01-25T00:05:16.144Z,6.78
2024-01-25T00:07:49.757Z,6.74
2024-01-25T00:10:26.435Z,6.71
2024-01-25T00:12:59.406Z,6.72
2024-01-25T00:15:32.381Z,6.75
2024-01-25T00:18:06.897Z,6.77
2024-01-25T00:20:39.903Z,6.76
2024-01-25T00:23:13.507Z,6.76
2024-01-25T00:25:46.633Z,6.76
2024-01-25T00:28:19.613Z,6.77
2024-01-25T00:30:52.562Z,6.79
2024-01-25T00:33:27.223Z,6.81
2024-01-25T00:36:00.858Z,6.83
2024-01-25T00:38:34.337Z,6.85
2024-01-25T00:41:11.398Z,6.84
2024-01-25T00:43:44.779Z,6.83
2024-01-25T00:46:18.821Z,6.83
2024-01-25T00:48:53.959Z,6.83
2024-01-25T00:51:27.559Z,6.83
2024-01-25T00:54:00.933Z,6.84
2024-01-25T00:56:34.395Z,6.85
2024-01-25T00:59:07.806Z,6.86
2024-01-25T01:01:42.385Z,6.87
2024-01-25T01:04:17.513Z,6.88
2024-01-25T01:06:50.995Z,6.86
2024-01-25T01:09:23.955Z,6.87
2024-01-25T01:11:56.911Z,6.85
2024-01-25T01:14:29.825Z,6.83
2024-01-25T01:17:04.774Z,6.84
2024-01-25T01:19:39.236Z,6.84
2024-01-25T01:22:12.695Z,6.82
2024-01-25T01:24:45.630Z,6.83
2024-01-25T01:27:18.611Z,6.84
2024-01-25T01:29:51.487Z,6.84
2024-01-25T01:32:24.721Z,6.80
2024-01-25T01:34:59.099Z,6.77
2024-01-25T01:37:32.070Z,6.75
2024-01-25T01:40:05.589Z,6.76
2024-01-25T01:42:38.562Z,6.75
2024-01-25T01:45:13.641Z,6.73
2024-01-25T01:47:46.850Z,6.74
2024-01-25T01:50:21.569Z,6.72
2024-01-25T01:52:55.638Z,6.73
2024-01-25T01:55:28.827Z,6.72
2024-01-25T01:58:02.264Z,6.75
2024-01-25T02:00:36.546Z,6.75
2024-01-25T02:06:40.119Z,6.78
2024-01-25T02:09:19.313Z,6.78
2024-01-25T02:12:01.457Z,6.81
2024-01-25T02:14:34.476Z,6.78
2024-01-25T02:17:07.533Z,6.74
2024-01-25T02:19:40.791Z,6.69
2024-01-25T02:22:22.007Z,6.62
2024-01-25T02:24:55.070Z,6.53
2024-01-25T02:27:28.215Z,6.48
2024-01-25T02:30:01.133Z,6.43
2024-01-25T02:32:34.032Z,6.41
2024-01-25T02:35:07.855Z,6.41
2024-01-25T02:37:42.259Z,6.42
2024-01-25T02:40:15.535Z,6.46
2024-01-25T02:42:48.584Z,6.48
2024-01-25T02:45:21.763Z,6.53
2024-01-25T02:47:54.644Z,6.58
2024-01-25T02:50:27.782Z,6.63
2024-01-25T02:53:02.031Z,6.66
2024-01-25T02:55:35.067Z,6.71
2024-01-25T02:58:08.001Z,6.74
2024-01-25T03:00:41.119Z,6.79
2024-01-25T03:03:14.147Z,6.81
2024-01-25T03:05:47.431Z,6.83
2024-01-25T03:08:21.834Z,6.86
2024-01-25T03:10:54.910Z,6.89
2024-01-25T03:13:27.832Z,6.91
2024-01-25T03:16:00.897Z,6.94
2024-01-25T03:18:33.987Z,6.94
2024-01-25T03:21:07.153Z,6.96
2024-01-25T03:23:41.617Z,6.96
2024-01-25T03:26:14.589Z,6.97
2024-01-25T03:28:47.520Z,6.99
2024-01-25T03:31:20.539Z,6.99
2024-01-25T03:33:53.583Z,6.99
2024-01-25T03:36:26.529Z,7.00
2024-01-25T03:39:01.054Z,7.00
2024-01-25T03:41:33.914Z,7.02
2024-01-25T03:44:06.933Z,7.01
2024-01-25T03:46:40.016Z,7.00
2024-01-25T03:49:13.037Z,6.99
2024-01-25T03:51:46.043Z,6.99
2024-01-25T03:54:20.376Z,6.99
2024-01-25T03:56:53.412Z,6.97
2024-01-25T03:59:26.277Z,6.96
2024-01-25T04:02:02.182Z,6.95
2024-01-25T04:04:35.237Z,6.96
2024-01-25T04:07:08.438Z,6.95
2024-01-25T04:09:42.804Z,6.94
2024-01-25T04:12:15.723Z,6.94
2024-01-25T04:14:48.591Z,6.95
2024-01-25T04:17:21.479Z,6.94
2024-01-25T04:19:54.553Z,6.89
2024-01-25T04:22:27.620Z,6.85
2024-01-25T04:25:01.966Z,6.80
2024-01-25T04:27:35.016Z,6.76
2024-01-25T04:30:09.904Z,6.76
2024-01-25T04:32:42.886Z,6.76
2024-01-25T04:35:16.035Z,6.76
2024-01-25T04:37:49.016Z,6.72
2024-01-25T04:40:23.404Z,6.71
2024-01-25T04:42:56.464Z,6.70
2024-01-25T04:45:29.412Z,6.67
2024-01-25T04:48:02.644Z,6.61
2024-01-25T04:50:35.830Z,6.61
2024-01-25T04:53:08.822Z,6.59
2024-01-25T04:55:43.195Z,6.56
2024-01-25T04:58:16.143Z,6.53
2024-01-25T05:00:49.436Z,6.46
2024-01-25T05:03:22.441Z,6.41
2024-01-25T05:05:55.377Z,6.38
2024-01-25T05:08:28.911Z,6.39
2024-01-25T05:11:05.489Z,6.36
2024-01-25T05:13:39.410Z,6.34
2024-01-25T05:16:13.203Z,6.33
2024-01-25T05:18:46.287Z,6.32
2024-01-25T05:21:19.221Z,6.34
2024-01-25T05:23:52.136Z,6.35
2024-01-25T05:26:26.477Z,6.36
2024-01-25T05:28:59.407Z,6.35
2024-01-25T05:31:32.402Z,6.38
2024-01-25T05:34:05.487Z,6.38
2024-01-25T05:36:38.502Z,6.39
2024-01-25T05:39:11.654Z,6.42
2024-01-25T05:41:50.482Z,6.42
2024-01-25T05:44:23.380Z,6.40
2024-01-25T05:46:56.243Z,6.39
2024-01-25T05:49:29.381Z,6.36
2024-01-25T05:52:02.416Z,6.35
2024-01-25T05:54:35.508Z,6.32
2024-01-25T05:57:09.726Z,6.30
2024-01-25T05:59:42.865Z,6.29
2024-01-25T06:02:16.194Z,6.26
2024-01-25T06:04:49.300Z,6.27
2024-01-25T06:07:23.123Z,6.26
2024-01-25T06:09:56.263Z,6.25
2024-01-25T06:12:30.570Z,6.24
2024-01-25T06:15:03.790Z,6.22
2024-01-25T06:17:37.088Z,6.22
2024-01-25T06:20:11.733Z,6.25
2024-01-25T06:22:44.723Z,6.26
2024-01-25T06:25:17.864Z,6.25
2024-01-25T06:27:52.444Z,6.24
2024-01-25T06:30:25.335Z,6.22
2024-01-25T06:32:58.234Z,6.20
2024-01-25T06:35:31.984Z,6.21
2024-01-25T06:38:05.113Z,6.20
2024-01-25T06:40:37.998Z,6.18
2024-01-25T06:43:14.031Z,6.18
2024-01-25T06:46:00.396Z,6.18
2024-01-25T06:48:33.432Z,6.19
2024-01-25T06:51:06.723Z,6.18
2024-01-25T06:53:47.442Z,6.18
2024-01-25T06:56:20.370Z,6.16
2024-01-25T06:58:54.656Z,6.16
2024-01-25T07:01:29.402Z,6.17
2024-01-25T07:04:05.187Z,6.16
2024-01-25T07:06:38.735Z,6.18
2024-01-25T07:09:12.417Z,6.21
2024-01-25T07:11:45.272Z,6.23
2024-01-25T07:14:19.718Z,6.23
2024-01-25T07:16:52.590Z,6.24
2024-01-25T07:19:26.191Z,6.27
2024-01-25T07:21:59.186Z,6.29
2024-01-25T07:24:32.094Z,6.30
2024-01-25T07:27:05.584Z,6.32
2024-01-25T07:29:39.933Z,6.35
2024-01-25T07:32:12.857Z,6.38
2024-01-25T07:34:45.987Z,6.41
2024-01-25T07:37:19.968Z,6.44
2024-01-25T07:39:52.942Z,6.44
2024-01-25T07:42:25.870Z,6.43
2024-01-25T07:45:03.400Z,6.42
2024-01-25T07:47:43.922Z,6.42
2024-01-25T07:50:18.613Z,6.42
2024-01-25T07:52:56.537Z,6.41
2024-01-25T07:55:31.051Z,6.42
2024-01-25T07:58:04.344Z,6.42
2024-01-25T08:00:38.953Z,6.41
2024-01-25T08:03:12.058Z,6.41
2024-01-25T08:05:50.739Z,6.43
2024-01-25T08:08:24.471Z,6.41
2024-01-25T08:10:57.345Z,6.38
2024-01-25T08:13:33.209Z,6.35
2024-01-25T08:16:13.399Z,6.33
2024-01-25T08:18:46.636Z,6.31
2024-01-25T08:21:19.693Z,6.30
2024-01-25T08:23:52.637Z,6.28
2024-01-25T08:26:25.645Z,6.27
2024-01-25T08:28:58.636Z,6.26
2024-01-25T08:31:33.245Z,6.24
2024-01-25T08:34:06.701Z,6.25
2024-01-25T08:36:42.831Z,6.27
2024-01-25T08:39:16.217Z,6.29
2024-01-25T08:41:51.219Z,6.30
2024-01-25T08:44:24.701Z,6.31
2024-01-25T08:46:59.021Z,6.34
2024-01-25T08:49:32.170Z,6.38
2024-01-25T08:52:06.916Z,6.40
2024-01-25T08:54:40.207Z,6.43
2024-01-25T08:57:34.201Z,6.43
2024-01-25T09:00:11.165Z,6.45
2024-01-25T09:02:46.008Z,6.44
2024-01-25T09:05:49.848Z,6.46
2024-01-25T09:08:25.654Z,6.48
2024-01-25T09:10:58.720Z,6.48
2024-01-25T09:13:33.622Z,6.49
2024-01-25T09:16:18.580Z,6.48
2024-01-25T09:18:52.960Z,6.50
2024-01-25T09:21:26.855Z,6.49
2024-01-25T09:24:00.616Z,6.48
2024-01-25T09:26:33.482Z,6.45
2024-01-25T09:29:06.780Z,6.45
2024-01-25T09:31:40.016Z,6.43
2024-01-25T09:34:14.813Z,6.44
2024-01-25T09:36:48.351Z,6.45
2024-01-25T09:39:21.315Z,6.47
2024-01-25T09:41:55.855Z,6.49
2024-01-25T09:44:29.195Z,6.50
2024-01-25T09:47:08.444Z,6.51
2024-01-25T09:49:45.651Z,6.48
2024-01-25T09:52:27.359Z,6.46
2024-01-25T09:55:01.291Z,6.45
2024-01-25T09:57:37.614Z,6.41
2024-01-25T10:00:13.245Z,6.40
2024-01-25T10:02:46.366Z,6.41
2024-01-25T10:05:20.781Z,6.44
2024-01-25T10:07:54.076Z,6.48
2024-01-25T10:10:27.109Z,6.50
2024-01-25T10:13:00.058Z,6.52
2024-01-25T10:15:33.250Z,6.54
2024-01-25T10:20:48.273Z,6.56
2024-01-25T10:23:21.371Z,6.54
2024-01-25T10:25:54.754Z,6.55
2024-01-25T10:28:29.945Z,6.57
2024-01-25T10:31:05.583Z,6.55
2024-01-25T10:33:41.001Z,6.57
2024-01-25T10:36:16.191Z,6.62
2024-01-25T10:38:51.143Z,6.65
2024-01-25T10:41:26.577Z,6.68
2024-01-25T10:44:03.053Z,6.67
2024-01-25T10:46:36.122Z,6.80
2024-01-25T10:49:10.759Z,6.72
2024-01-25T10:51:46.406Z,6.73
2024-01-25T10:54:19.438Z,6.76
2024-01-25T10:56:54.595Z,6.79
2024-01-25T10:59:28.895Z,6.78
2024-01-25T11:02:03.576Z,6.78
2024-01-25T11:04:36.728Z,6.76
2024-01-25T11:07:12.976Z,6.78
2024-01-25T11:09:49.525Z,6.79
2024-01-25T11:12:22.631Z,6.85
2024-01-25T11:14:58.601Z,6.86
2024-01-25T11:17:34.358Z,6.87
2024-01-25T11:20:18.257Z,6.85
2024-01-25T11:22:58.017Z,6.86
2024-01-25T11:25:31.237Z,6.86
2024-01-25T11:28:05.864Z,6.86
2024-01-25T11:30:39.365Z,6.81
2024-01-25T11:33:15.205Z,6.80
2024-01-25T11:35:56.601Z,6.78
2024-01-25T11:38:31.171Z,6.70
2024-01-25T11:41:04.062Z,6.66
2024-01-25T11:43:37.779Z,6.66
2024-01-25T11:46:11.309Z,6.69
2024-01-25T11:48:44.483Z,6.68
2024-01-25T11:51:17.461Z,6.67
2024-01-25T11:53:51.738Z,6.69
2024-01-25T11:56:29.720Z,6.71
2024-01-25T11:59:03.568Z,6.72
2024-01-25T12:01:36.781Z,6.73
2024-01-25T12:04:10.380Z,6.76
2024-01-25T12:06:43.902Z,6.76
2024-01-25T12:09:18.551Z,6.76
2024-01-25T12:11:52.136Z,6.74
2024-01-25T12:14:26.075Z,6.85
2024-01-25T12:16:58.981Z,6.78
2024-01-25T12:19:32.018Z,6.75
2024-01-25T12:22:05.403Z,6.74
2024-01-25T12:24:44.268Z,6.74
2024-01-25T12:27:28.130Z,6.76
2024-01-25T12:30:01.040Z,6.79
2024-01-25T12:32:34.287Z,6.80
2024-01-25T12:35:09.164Z,6.80
2024-01-25T12:37:42.233Z,6.78
2024-01-25T12:40:16.995Z,6.77
2024-01-25T12:42:50.113Z,6.78
2024-01-25T12:45:23.066Z,6.81
2024-01-25T12:47:56.193Z,6.83
2024-01-25T12:50:29.272Z,6.84
2024-01-25T12:53:03.222Z,6.84
2024-01-25T12:55:37.677Z,6.83
2024-01-25T12:58:10.606Z,6.84
2024-01-25T13:00:44.548Z,6.86
2024-01-25T13:03:18.354Z,6.86
2024-01-25T13:05:51.329Z,6.79
2024-01-25T13:08:25.055Z,6.74
2024-01-25T13:10:59.418Z,6.72
2024-01-25T13:13:32.305Z,6.70
2024-01-25T13:16:05.737Z,6.68
2024-01-25T13:18:38.777Z,6.69
2024-01-25T13:21:11.858Z,6.69
2024-01-25T13:23:44.788Z,6.67
2024-01-25T13:26:19.100Z,6.66
2024-01-25T13:28:52.054Z,6.66
2024-01-25T13:31:25.349Z,6.67
2024-01-25T13:33:58.468Z,6.69
2024-01-25T13:36:31.585Z,6.69
2024-01-25T13:39:04.810Z,6.70
2024-01-25T13:41:39.119Z,6.69
2024-01-25T13:44:12.087Z,6.69
2024-01-25T13:46:45.258Z,6.67
2024-01-25T13:49:18.294Z,6.65
2024-01-25T13:51:51.268Z,6.61
2024-01-25T13:54:24.961Z,6.67
2024-01-25T13:56:59.250Z,6.55
2024-01-25T13:59:32.132Z,6.51
2024-01-25T14:02:05.241Z,6.51
2024-01-25T14:04:38.214Z,6.47
2024-01-25T14:07:11.302Z,6.45
2024-01-25T14:09:44.443Z,6.43
2024-01-25T14:12:19.029Z,6.43
2024-01-25T14:14:52.081Z,6.31
2024-01-25T14:17:25.115Z,6.14
2024-01-25T14:20:00.012Z,5.97
2024-01-25T14:22:36.335Z,5.81
2024-01-25T14:25:11.141Z,5.70
2024-01-25T14:27:49.084Z,5.63
2024-01-25T14:30:22.930Z,5.58
2024-01-25T14:32:59.816Z,5.57
2024-01-25T14:35:35.821Z,5.53
2024-01-25T14:38:08.718Z,5.48
2024-01-25T14:40:53.369Z,5.44
2024-01-25T14:43:43.285Z,5.44
2024-01-25T14:46:17.681Z,5.44
2024-01-25T14:48:51.857Z,5.41
2024-01-25T14:51:25.096Z,5.36
2024-01-25T14:53:58.034Z,5.32
2024-01-25T14:56:30.950Z,5.30
2024-01-25T14:59:05.254Z,5.25
2024-01-25T15:01:38.326Z,5.20
2024-01-25T15:04:11.382Z,5.17
2024-01-25T15:06:44.577Z,5.16
2024-01-25T15:09:17.659Z,5.15
2024-01-25T15:11:50.563Z,5.14
2024-01-25T15:14:24.868Z,5.14
2024-01-25T15:16:57.829Z,5.15
2024-01-25T15:19:30.869Z,5.13
2024-01-25T15:22:03.942Z,5.10
2024-01-25T15:24:39.055Z,5.08
2024-01-25T15:27:11.966Z,5.07
2024-01-25T15:29:46.217Z,5.07
2024-01-25T15:32:19.109Z,5.07
2024-01-25T15:34:52.200Z,5.07
2024-01-25T15:37:25.413Z,5.07
2024-01-25T15:39:58.404Z,5.06
2024-01-25T15:42:32.430Z,5.05
2024-01-25T15:45:09.367Z,5.02
2024-01-25T15:47:43.659Z,5.00
2024-01-25T15:50:16.567Z,4.98
2024-01-25T15:52:49.794Z,4.97
2024-01-25T15:55:24.093Z,4.94
2024-01-25T15:57:57.092Z,4.87
2024-01-25T16:00:31.467Z,4.83
2024-01-25T16:03:04.935Z,4.80
2024-01-25T16:05:37.904Z,4.79
2024-01-25T16:08:10.877Z,4.77
2024-01-25T16:10:44.673Z,4.77
2024-01-25T16:13:17.589Z,4.90
2024-01-25T16:15:51.826Z,4.78
2024-01-25T16:18:24.902Z,4.78
2024-01-25T16:20:58.001Z,4.78
2024-01-25T16:23:30.903Z,4.79
2024-01-25T16:26:04.036Z,4.82
2024-01-25T16:28:37.114Z,4.82
2024-01-25T16:31:16.576Z,4.80
2024-01-25T16:33:49.696Z,4.81
2024-01-25T16:36:25.682Z,4.83
2024-01-25T16:38:58.794Z,4.83
2024-01-25T16:41:35.001Z,4.81
2024-01-25T16:44:08.004Z,4.80
2024-01-25T16:46:42.233Z,4.80
2024-01-25T16:49:15.219Z,4.81
2024-01-25T16:51:48.360Z,4.80
2024-01-25T16:54:21.408Z,4.80
2024-01-25T16:56:54.392Z,4.81
2024-01-25T16:59:29.135Z,4.81
2024-01-25T17:02:04.295Z,4.80
2024-01-25T17:04:37.721Z,4.80
2024-01-25T17:07:10.981Z,4.79
2024-01-25T17:09:43.974Z,4.77
2024-01-25T17:12:18.509Z,4.71
2024-01-25T17:15:25.203Z,4.64
2024-01-25T17:17:59.803Z,4.53
2024-01-25T17:20:33.264Z,4.45
2024-01-25T17:23:06.782Z,4.39
2024-01-25T17:25:43.007Z,4.34
2024-01-25T17:28:16.152Z,4.32
2024-01-25T17:30:50.482Z,4.31
2024-01-25T17:33:25.327Z,4.27
2024-01-25T17:35:58.681Z,4.27
2024-01-25T17:38:34.236Z,4.27
2024-01-25T17:41:07.294Z,4.25
2024-01-25T17:43:42.506Z,4.26
2024-01-25T17:46:16.548Z,4.28
2024-01-25T17:48:51.157Z,4.28
2024-01-25T17:51:24.297Z,4.29
2024-01-25T17:53:57.270Z,4.30
2024-01-25T17:56:30.994Z,4.31
2024-01-25T17:59:06.296Z,4.36
2024-01-25T18:01:39.305Z,4.40
2024-01-25T18:04:13.685Z,4.42
2024-01-25T18:06:46.606Z,4.43
2024-01-25T18:09:24.733Z,4.45
2024-01-25T18:11:57.944Z,4.47
2024-01-25T18:14:33.298Z,4.50
2024-01-25T18:17:06.272Z,4.52
2024-01-25T18:19:41.072Z,4.53
2024-01-25T18:22:14.505Z,4.52
2024-01-25T18:24:47.607Z,4.52
2024-01-25T18:27:20.573Z,4.52
2024-01-25T18:29:53.467Z,4.54
2024-01-25T18:32:26.483Z,4.54
2024-01-25T18:35:00.959Z,4.53
2024-01-25T18:37:33.906Z,4.52
2024-01-25T18:40:08.036Z,4.52
2024-01-25T18:42:41.087Z,4.49
2024-01-25T18:45:14.104Z,4.49
2024-01-25T18:47:49.988Z,4.47
2024-01-25T18:50:24.347Z,4.44
2024-01-25T18:52:57.312Z,4.42
2024-01-25T18:55:30.987Z,4.39
2024-01-25T18:58:04.578Z,4.37
2024-01-25T19:00:38.484Z,4.34
2024-01-25T19:03:11.901Z,4.40
2024-01-25T19:05:47.882Z,4.23
2024-01-25T19:08:22.446Z,4.18
2024-01-25T19:10:55.580Z,4.17
2024-01-25T19:13:28.451Z,4.16
2024-01-25T19:16:01.429Z,4.13
2024-01-25T19:18:34.373Z,4.11
2024-01-25T19:21:09.889Z,4.12
2024-01-25T19:23:42.787Z,4.13
2024-01-25T19:26:15.944Z,4.13
2024-01-25T19:28:48.780Z,4.14
2024-01-25T19:31:21.667Z,4.12
2024-01-25T19:33:54.811Z,4.10
2024-01-25T19:36:32.255Z,4.08
2024-01-25T19:39:06.749Z,4.09
2024-01-25T19:41:39.646Z,4.09
2024-01-25T19:44:12.647Z,4.08
2024-01-25T19:46:45.532Z,4.07
2024-01-25T19:49:18.700Z,4.05
2024-01-25T19:51:53.248Z,4.02
2024-01-25T19:54:26.254Z,4.00
2024-01-25T19:56:59.273Z,3.98
2024-01-25T19:59:32.725Z,3.97
2024-01-25T20:02:06.220Z,3.94
2024-01-25T20:04:44.101Z,3.94
2024-01-25T20:07:19.273Z,3.91
2024-01-25T20:09:52.337Z,3.89
2024-01-25T20:12:25.348Z,3.87
2024-01-25T20:14:58.530Z,3.87
2024-01-25T20:17:33.802Z,3.85
2024-01-25T20:20:07.960Z,3.87
2024-01-25T20:22:42.370Z,3.86
2024-01-25T20:25:21.783Z,3.88
2024-01-25T20:27:59.284Z,3.88
2024-01-25T20:30:35.620Z,3.85
2024-01-25T20:33:08.884Z,3.85
2024-01-25T20:35:41.974Z,3.87
2024-01-25T20:38:16.587Z,3.88
2024-01-25T20:40:49.551Z,3.88
2024-01-25T20:43:25.252Z,3.87
2024-01-25T20:46:01.596Z,3.85
2024-01-25T20:48:39.473Z,3.84
2024-01-25T20:51:12.418Z,3.84
2024-01-25T20:53:53.938Z,3.81
2024-01-25T20:56:33.932Z,3.84
2024-01-25T20:59:07.623Z,3.84
2024-01-25T21:01:41.141Z,3.82
2024-01-25T21:04:15.840Z,3.81
2024-01-25T21:06:50.604Z,3.81
2024-01-25T21:09:25.831Z,3.81
2024-01-25T21:11:59.426Z,3.81
2024-01-25T21:14:33.024Z,3.83
2024-01-25T21:17:06.818Z,3.84
2024-01-25T21:19:42.233Z,3.81
2024-01-25T21:22:15.290Z,3.79
2024-01-25T21:24:53.392Z,3.76
2024-01-25T21:27:26.377Z,3.76
2024-01-25T21:29:59.332Z,3.75
2024-01-25T21:32:32.302Z,3.74
2024-01-25T21:35:06.431Z,3.72
2024-01-25T21:37:39.534Z,3.71
2024-01-25T21:40:13.990Z,3.70
2024-01-25T21:42:47.158Z,3.72
2024-01-25T21:45:20.304Z,3.71
2024-01-25T21:47:53.419Z,3.71
2024-01-25T21:50:26.458Z,3.70
2024-01-25T21:52:59.508Z,3.69
2024-01-25T21:55:34.523Z,3.68
2024-01-25T21:58:07.591Z,3.69
2024-01-25T22:00:40.722Z,3.69
2024-01-25T22:03:14.174Z,3.69
2024-01-25T22:05:47.503Z,3.68
2024-01-25T22:08:20.602Z,3.66
2024-01-25T22:10:54.810Z,3.64
2024-01-25T22:13:29.831Z,3.66
2024-01-25T22:16:02.922Z,3.64
2024-01-25T22:18:38.085Z,3.66
2024-01-25T22:21:11.047Z,3.69
2024-01-25T22:23:44.288Z,3.72
2024-01-25T22:26:18.609Z,3.71
2024-01-25T22:28:51.516Z,3.72
2024-01-25T22:31:24.438Z,3.72
2024-01-25T22:33:57.506Z,3.72
2024-01-25T22:36:30.513Z,3.72
2024-01-25T22:39:04.915Z,3.71
2024-01-25T22:41:39.178Z,3.70
2024-01-25T22:44:12.080Z,3.70
2024-01-25T22:46:48.670Z,3.68
2024-01-25T22:49:26.558Z,3.66
2024-01-25T22:51:59.412Z,3.64
2024-01-25T22:54:32.417Z,3.64
2024-01-25T22:57:06.906Z,3.65
2024-01-25T22:59:40.098Z,3.65
2024-01-25T23:02:13.012Z,3.63
2024-01-25T23:04:46.082Z,3.59
2024-01-25T23:07:19.000Z,3.57
2024-01-25T23:09:52.417Z,3.56
2024-01-25T23:12:27.318Z,3.56
2024-01-25T23:15:00.239Z,3.58
2024-01-25T23:17:33.422Z,3.62
2024-01-25T23:20:07.677Z,3.62
2024-01-25T23:22:40.597Z,3.62
2024-01-25T23:25:13.643Z,3.62
2024-01-25T23:27:47.985Z,3.61
2024-01-25T23:30:20.988Z,3.57
2024-01-25T23:32:53.992Z,3.57
2024-01-25T23:35:27.159Z,3.57
2024-01-25T23:38:00.105Z,3.59
2024-01-25T23:40:33.944Z,3.58
2024-01-25T23:43:08.965Z,3.59
2024-01-25T23:45:42.053Z,3.61
2024-01-25T23:48:16.064Z,3.60
2024-01-25T23:50:49.396Z,3.60
2024-01-25T23:53:22.352Z,3.58
2024-01-25T23:55:55.329Z,3.56
2024-01-25T23:58:29.703Z,3.55
